Аэропорт: Ленкорань. Ленкорань

ICAO: UBBL

METAR:
2024-04-22 23:00:00
UBBL 222300Z 00000KT 9999 SCT055 13/13 Q1019 NOSIG
TAF:
2024-04-22 23:09:00
TAF UBBL 222309Z 2300/2324 VRB04KT 9999 SCT060 TX25/2309Z TN13/2301Z 
  BECMG 2305/2307 17005KT FEW015 
  TEMPO 2308/2315 16010KT SCT020 
  BECMG 2315/2317 VRB04KT